Time;durP1;ratioP1;P1;durP2;ratioP2;P2;SDS_P1;SDS_P2;PMS_P1;PMS_P2;Temp;Humidity;BMP_temperature;BMP_pressure;BME280_temperature;BME280_humidity;BME280_pressure;Samples;Min_cycle;Max_cycle;Signal;HPM_P1;HPM_P2
2023/03/19 00:01:59;;;;;;;80.50;30.90;;;;;;;6.51;55.49;100668.73;111098;1212;96253;-60
2023/03/19 00:04:26;;;;;;;75.70;29.60;;;;;;;6.48;55.51;100671.98;110980;1212;138652;-60
2023/03/19 00:06:51;;;;;;;73.60;30.50;;;;;;;6.46;55.70;100674.18;111148;1209;96885;-60
2023/03/19 00:09:18;;;;;;;68.90;28.70;;;;;;;6.43;55.67;100677.27;111035;1212;140120;-60
2023/03/19 00:11:43;;;;;;;77.50;29.80;;;;;;;6.40;55.77;100679.48;111179;1209;108657;-60
2023/03/19 00:14:09;;;;;;;80.90;31.10;;;;;;;6.38;55.87;100684.33;111055;1212;96342;-60
2023/03/19 00:16:35;;;;;;;70.40;28.90;;;;;;;6.37;56.04;100682.94;110975;1208;140038;-59
2023/03/19 00:19:01;;;;;;;74.30;30.00;;;;;;;6.35;56.01;100685.46;111056;1209;96212;-59
2023/03/19 00:21:27;;;;;;;70.50;28.50;;;;;;;6.35;56.11;100685.64;110982;1209;140063;-60
2023/03/19 00:23:53;;;;;;;81.00;31.60;;;;;;;6.35;56.18;100688.13;111146;1212;96258;-61
2023/03/19 00:26:18;;;;;;;76.70;30.30;;;;;;;6.36;56.23;100684.73;110993;1210;95674;-60
2023/03/19 00:28:44;;;;;;;78.10;30.90;;;;;;;6.35;56.36;100685.63;111006;1210;138568;-62
2023/03/19 00:31:15;;;;;;;76.40;29.40;;;;;;;6.35;56.43;100687.06;111131;1209;96291;-59
2023/03/19 00:33:42;;;;;;;71.00;28.50;;;;;;;6.33;56.35;100686.77;110996;1209;138720;-62
2023/03/19 00:36:09;;;;;;;75.70;31.00;;;;;;;6.31;56.54;100688.06;111026;1211;96712;-59
2023/03/19 00:38:35;;;;;;;80.30;30.40;;;;;;;6.28;56.51;100687.05;111117;1209;95256;-60
2023/03/19 00:41:01;;;;;;;74.10;29.20;;;;;;;6.27;56.60;100689.21;110870;1209;138298;-61
2023/03/19 00:43:27;;;;;;;86.10;31.30;;;;;;;6.26;56.59;100687.30;111147;1209;96668;-59
2023/03/19 00:45:53;;;;;;;76.10;29.60;;;;;;;6.26;56.57;100685.00;110934;1212;139138;-61
2023/03/19 00:48:19;;;;;;;80.00;30.10;;;;;;;6.23;56.79;100679.55;111200;1209;96366;-61
2023/03/19 00:50:44;;;;;;;84.50;31.60;;;;;;;6.23;56.89;100680.29;111161;1209;96341;-59
2023/03/19 00:53:10;;;;;;;93.00;31.90;;;;;;;6.22;56.81;100678.34;110955;1212;137627;-61
2023/03/19 00:55:35;;;;;;;77.30;29.40;;;;;;;6.22;56.97;100683.67;111121;1215;96350;-59
2023/03/19 00:58:01;;;;;;;86.90;31.50;;;;;;;6.21;57.01;100682.11;111112;1212;138222;-59
2023/03/19 01:00:26;;;;;;;77.70;32.00;;;;;;;6.19;57.10;100678.40;111110;1209;94793;-59
2023/03/19 01:02:51;;;;;;;76.50;31.70;;;;;;;6.19;56.95;100680.02;111122;1210;139466;-59
2023/03/19 01:05:17;;;;;;;71.10;30.20;;;;;;;6.16;57.22;100679.20;111211;1209;96354;-60
2023/03/19 01:07:42;;;;;;;80.50;29.30;;;;;;;6.13;57.12;100677.48;111112;1212;96350;-60
2023/03/19 01:10:09;;;;;;;81.70;29.40;;;;;;;6.12;57.29;100681.25;111011;1209;138937;-60
2023/03/19 01:12:34;;;;;;;67.80;29.60;;;;;;;6.11;57.29;100683.39;111087;1209;96175;-60
2023/03/19 01:15:01;;;;;;;71.30;29.30;;;;;;;6.12;57.46;100680.88;110964;1212;139913;-60
2023/03/19 01:17:27;;;;;;;76.80;30.70;;;;;;;6.13;57.48;100681.04;111251;1208;97514;-60
2023/03/19 01:19:52;;;;;;;89.40;31.90;;;;;;;6.14;57.57;100679.07;111238;1212;96342;-60
2023/03/19 01:22:18;;;;;;;68.60;30.10;;;;;;;6.15;57.58;100676.73;110955;1209;138340;-60
2023/03/19 01:24:43;;;;;;;71.90;29.60;;;;;;;6.15;57.56;100672.30;111190;1210;96297;-60
2023/03/19 01:27:09;;;;;;;76.10;31.50;;;;;;;6.16;57.75;100673.70;111022;1212;139061;-60
2023/03/19 01:29:35;;;;;;;91.80;31.70;;;;;;;6.16;57.79;100677.58;111139;1209;96024;-60
2023/03/19 01:32:00;;;;;;;80.00;30.80;;;;;;;6.18;57.78;100676.31;111168;1209;96187;-60
2023/03/19 01:34:26;;;;;;;69.20;30.40;;;;;;;6.19;57.88;100667.95;111062;1212;138065;-60
2023/03/19 01:36:51;;;;;;;76.30;30.80;;;;;;;6.21;57.93;100661.85;111174;1208;94857;-61
2023/03/19 01:39:17;;;;;;;72.30;29.20;;;;;;;6.21;58.00;100663.48;111077;1208;140128;-60
2023/03/19 01:41:42;;;;;;;73.30;29.20;;;;;;;6.20;58.05;100658.69;111067;1210;96240;-61
2023/03/19 01:44:30;;;;;;;72.40;28.60;;;;;;;6.18;58.13;100659.98;111082;1212;96399;-60
2023/03/19 01:46:57;;;;;;;67.70;28.20;;;;;;;6.14;58.05;100660.60;110965;1212;138916;-61
2023/03/19 01:49:25;;;;;;;69.50;28.00;;;;;;;6.12;58.27;100661.73;111171;1209;95266;-60
2023/03/19 01:51:51;;;;;;;69.10;27.60;;;;;;;6.09;58.19;100664.29;110949;1212;138828;-60
2023/03/19 01:54:19;;;;;;;68.80;29.30;;;;;;;6.06;58.18;100663.64;111141;1209;94813;-60
2023/03/19 01:56:49;;;;;;;74.20;30.10;;;;;;;6.05;58.24;100665.10;111103;1209;96253;-60
2023/03/19 01:59:20;;;;;;;69.40;29.40;;;;;;;6.02;58.34;100667.83;111100;1209;101273;-60
2023/03/19 02:02:11;;;;;;;86.60;29.40;;;;;;;6.00;58.40;100665.93;111085;1209;107987;-60
2023/03/19 02:04:39;;;;;;;73.40;28.30;;;;;;;5.97;58.46;100662.29;110988;1209;138561;-61
2023/03/19 02:07:06;;;;;;;72.50;27.60;;;;;;;5.96;58.51;100662.66;111103;1212;96290;-60
2023/03/19 02:09:32;;;;;;;71.10;27.50;;;;;;;5.95;58.49;100663.38;111063;1210;140754;-60
2023/03/19 02:11:59;;;;;;;69.00;27.80;;;;;;;5.95;58.40;100659.68;111068;1212;96330;-60
2023/03/19 02:14:25;;;;;;;71.40;28.60;;;;;;;5.95;58.68;100655.78;111143;1209;96295;-60
2023/03/19 02:16:52;;;;;;;68.70;28.30;;;;;;;5.96;58.54;100660.01;111024;1209;140244;-60
2023/03/19 02:19:27;;;;;;;82.00;29.40;;;;;;;5.96;58.57;100663.72;111112;1209;109852;-60
2023/03/19 02:21:54;;;;;;;73.30;29.20;;;;;;;5.97;58.88;100667.95;110967;1209;138479;-60
2023/03/19 02:24:27;;;;;;;73.40;30.00;;;;;;;5.98;58.83;100665.46;111161;1208;96703;-60
2023/03/19 02:26:52;;;;;;;76.10;29.70;;;;;;;5.98;58.88;100665.63;110994;1209;138362;-60
2023/03/19 02:29:18;;;;;;;78.70;29.10;;;;;;;5.99;58.86;100667.03;111077;1209;96334;-60
2023/03/19 02:31:43;;;;;;;76.60;29.00;;;;;;;6.00;58.94;100667.35;111121;1212;96889;-61
2023/03/19 02:34:08;;;;;;;72.30;28.80;;;;;;;6.01;59.07;100663.61;110913;1209;140110;-60
2023/03/19 02:36:45;;;;;;;69.50;29.20;;;;;;;6.02;59.07;100661.27;111138;1209;97176;-60
2023/03/19 02:39:25;;;;;;;69.20;29.60;;;;;;;6.03;59.09;100661.61;110957;1212;139736;-60
2023/03/19 02:41:53;;;;;;;68.20;28.10;;;;;;;6.03;59.30;100667.11;111095;1212;99916;-60
2023/03/19 02:44:19;;;;;;;70.70;29.50;;;;;;;6.03;59.18;100668.15;111045;1209;108343;-60
2023/03/19 02:46:45;;;;;;;71.40;29.40;;;;;;;6.02;59.29;100668.20;110880;1212;138598;-61
2023/03/19 02:49:10;;;;;;;76.80;30.50;;;;;;;6.00;59.32;100670.73;111102;1209;96030;-61
2023/03/19 02:51:36;;;;;;;77.00;30.60;;;;;;;5.98;59.34;100676.64;110938;1209;139387;-60
2023/03/19 02:54:03;;;;;;;69.40;29.20;;;;;;;5.95;59.42;100677.74;111068;1209;97680;-60
2023/03/19 02:56:28;;;;;;;74.30;29.50;;;;;;;5.94;59.36;100677.96;111068;1210;97606;-60
2023/03/19 02:58:54;;;;;;;75.80;30.20;;;;;;;5.93;59.33;100677.99;111201;1212;138035;-60
2023/03/19 03:01:20;;;;;;;70.30;29.90;;;;;;;5.89;59.35;100685.16;111012;1209;97671;-60
2023/03/19 03:03:47;;;;;;;79.00;32.30;;;;;;;5.86;59.46;100691.24;111037;1213;138590;-60
2023/03/19 03:06:13;;;;;;;82.50;31.80;;;;;;;5.82;59.50;100696.65;111152;1210;98473;-60
2023/03/19 03:08:38;;;;;;;69.30;29.00;;;;;;;5.78;59.69;100697.80;111058;1209;111607;-60
2023/03/19 03:11:03;;;;;;;82.40;31.30;;;;;;;5.75;59.68;100702.48;110922;1207;140080;-60
2023/03/19 03:13:29;;;;;;;76.10;30.40;;;;;;;5.73;59.63;100702.88;111132;1212;97596;-60
2023/03/19 03:15:54;;;;;;;87.50;31.60;;;;;;;5.72;59.69;100702.39;110915;1209;139890;-61
2023/03/19 03:18:19;;;;;;;77.10;30.50;;;;;;;5.70;59.76;100700.30;111114;1209;97616;-59
2023/03/19 03:20:45;;;;;;;73.00;30.20;;;;;;;5.70;59.95;100701.55;111022;1213;97566;-61
2023/03/19 03:23:10;;;;;;;77.40;29.50;;;;;;;5.69;59.92;100697.48;110922;1212;139512;-59
2023/03/19 03:25:36;;;;;;;71.70;30.40;;;;;;;5.67;59.81;100697.34;111124;1207;95434;-59
2023/03/19 03:28:02;;;;;;;72.80;30.30;;;;;;;5.66;59.95;100702.16;110966;1212;140568;-59
2023/03/19 03:30:27;;;;;;;75.70;28.90;;;;;;;5.64;59.99;100706.45;111022;1207;97568;-60
2023/03/19 03:32:53;;;;;;;66.80;29.10;;;;;;;5.62;60.00;100713.07;111006;1212;139884;-59
2023/03/19 03:35:21;;;;;;;68.60;29.30;;;;;;;5.62;60.18;100717.15;111036;1212;97571;-62
2023/03/19 03:37:48;;;;;;;78.00;29.80;;;;;;;5.60;60.19;100716.84;111204;1212;97654;-61
2023/03/19 03:40:14;;;;;;;66.60;28.10;;;;;;;5.60;60.39;100715.95;111037;1209;138498;-61
2023/03/19 03:42:40;;;;;;;73.10;30.50;;;;;;;5.60;60.25;100717.54;111084;1212;97645;-60
2023/03/19 03:45:06;;;;;;;75.60;30.00;;;;;;;5.59;60.38;100714.55;111050;1208;139377;-60
2023/03/19 03:47:32;;;;;;;81.10;32.00;;;;;;;5.60;60.43;100714.36;111163;1212;99408;-60
2023/03/19 03:49:57;;;;;;;71.90;30.40;;;;;;;5.61;60.41;100714.86;111042;1212;96222;-60
2023/03/19 03:52:23;;;;;;;75.80;30.30;;;;;;;5.57;60.48;100716.17;111049;1209;139242;-60
2023/03/19 03:54:48;;;;;;;70.80;30.70;;;;;;;5.49;60.42;100710.69;111112;1212;97683;-60
2023/03/19 03:57:14;;;;;;;78.60;31.90;;;;;;;5.43;60.50;100710.64;111044;1208;139409;-59
2023/03/19 03:59:39;;;;;;;85.00;34.20;;;;;;;5.39;60.73;100711.08;111113;1209;97652;-59
2023/03/19 04:02:06;;;;;;;74.40;30.30;;;;;;;5.37;60.73;100711.65;111109;1210;98106;-60
2023/03/19 04:04:32;;;;;;;71.70;30.20;;;;;;;5.32;60.79;100706.79;111164;1209;139633;-60
2023/03/19 04:06:58;;;;;;;78.40;31.40;;;;;;;5.29;60.85;100706.16;111149;1212;108053;-59
2023/03/19 04:09:23;;;;;;;70.90;30.00;;;;;;;5.24;60.74;100706.78;110942;1209;138922;-60
2023/03/19 04:11:48;;;;;;;70.70;28.80;;;;;;;5.21;61.04;100700.84;111230;1208;98202;-60
2023/03/19 04:14:14;;;;;;;71.80;29.90;;;;;;;5.19;61.12;100702.14;111064;1209;95426;-60
2023/03/19 04:16:39;;;;;;;68.20;28.30;;;;;;;5.17;60.96;100705.89;110969;1210;138316;-60
2023/03/19 04:19:06;;;;;;;70.10;28.70;;;;;;;5.16;61.08;100707.87;111005;1212;97607;-60
2023/03/19 04:21:32;;;;;;;70.20;28.30;;;;;;;5.13;61.14;100704.39;110939;1212;139074;-60
2023/03/19 04:23:57;;;;;;;68.60;28.50;;;;;;;5.11;61.34;100707.27;111077;1208;97699;-62
2023/03/19 04:26:23;;;;;;;70.60;29.60;;;;;;;5.10;61.34;100708.88;111040;1209;97683;-61
2023/03/19 04:28:48;;;;;;;66.30;28.00;;;;;;;5.09;61.32;100711.20;110968;1212;138496;-59
2023/03/19 04:31:14;;;;;;;72.00;29.00;;;;;;;5.08;61.35;100713.87;111063;1210;97602;-59
2023/03/19 04:33:39;;;;;;;72.00;28.60;;;;;;;5.06;61.31;100714.62;110986;1209;139154;-59
2023/03/19 04:36:06;;;;;;;66.50;29.10;;;;;;;5.05;61.31;100713.92;111097;1209;96872;-60
2023/03/19 04:38:32;;;;;;;75.20;28.90;;;;;;;5.03;61.50;100712.38;111198;1210;97690;-60
2023/03/19 04:40:58;;;;;;;70.80;28.70;;;;;;;5.02;61.55;100712.56;111039;1209;140835;-60
2023/03/19 04:43:23;;;;;;;64.50;27.30;;;;;;;5.01;61.68;100709.23;110986;1208;97716;-60
2023/03/19 04:45:49;;;;;;;71.00;27.00;;;;;;;5.01;61.69;100712.42;111047;1212;138513;-60
2023/03/19 04:48:15;;;;;;;64.80;26.60;;;;;;;5.00;61.79;100711.19;111106;1209;111841;-60
2023/03/19 04:50:41;;;;;;;60.10;26.50;;;;;;;5.00;61.75;100713.69;111082;1212;97591;-60
2023/03/19 04:53:07;;;;;;;66.70;27.70;;;;;;;5.00;61.85;100713.86;110997;1212;138668;-60
2023/03/19 04:55:33;;;;;;;69.00;27.70;;;;;;;4.97;61.91;100712.48;111083;1210;97613;-58
2023/03/19 04:58:00;;;;;;;75.80;28.40;;;;;;;4.97;61.84;100708.95;110971;1209;138932;-59
2023/03/19 05:00:25;;;;;;;67.70;26.60;;;;;;;4.98;62.03;100710.35;111134;1209;98201;-59
2023/03/19 05:02:51;;;;;;;68.30;27.90;;;;;;;4.99;62.00;100712.64;111027;1210;138901;-60
2023/03/19 05:05:17;;;;;;;71.00;27.60;;;;;;;4.99;62.08;100708.21;111138;1212;99055;-59
2023/03/19 05:07:42;;;;;;;70.20;27.60;;;;;;;4.97;62.02;100704.17;111282;1212;98897;-59
2023/03/19 05:10:09;;;;;;;70.00;28.20;;;;;;;4.97;62.19;100701.35;110907;1209;138824;-60
2023/03/19 05:12:35;;;;;;;81.40;28.80;;;;;;;4.97;62.25;100702.94;111218;1209;97573;-60
2023/03/19 05:15:00;;;;;;;71.30;27.40;;;;;;;4.96;62.26;100708.25;110936;1210;138727;-59
2023/03/19 05:17:26;;;;;;;76.60;29.30;;;;;;;4.95;62.26;100707.41;111142;1209;97839;-60
2023/03/19 05:19:52;;;;;;;78.80;29.90;;;;;;;4.94;62.29;100706.54;111097;1210;97612;-60
2023/03/19 05:22:18;;;;;;;66.80;27.30;;;;;;;4.95;62.44;100703.33;110921;1209;138962;-60
2023/03/19 05:24:44;;;;;;;76.00;28.90;;;;;;;4.97;62.45;100701.88;111259;1209;97606;-60
2023/03/19 05:27:09;;;;;;;78.30;30.60;;;;;;;4.98;62.46;100699.38;111026;1209;138748;-59
2023/03/19 05:29:35;;;;;;;69.10;26.20;;;;;;;4.98;62.52;100699.02;111016;1212;99052;-60
2023/03/19 05:32:02;;;;;;;70.60;28.10;;;;;;;4.99;62.49;100699.19;111116;1209;97574;-60
2023/03/19 05:34:28;;;;;;;67.20;27.70;;;;;;;5.00;62.62;100699.34;110978;1209;139250;-60
2023/03/19 05:36:53;;;;;;;70.40;27.90;;;;;;;5.02;62.76;100703.73;111154;1212;97642;-60
2023/03/19 05:39:19;;;;;;;67.30;28.60;;;;;;;5.01;62.65;100704.64;111005;1208;139352;-59
2023/03/19 05:41:45;;;;;;;76.70;30.40;;;;;;;4.99;62.68;100712.63;111070;1210;97590;-59
2023/03/19 05:44:10;;;;;;;85.20;33.30;;;;;;;4.98;62.74;100712.48;111025;1209;97657;-60
2023/03/19 05:46:35;;;;;;;74.70;31.50;;;;;;;4.98;62.78;100711.08;111013;1208;139061;-60
2023/03/19 05:49:00;;;;;;;77.40;31.50;;;;;;;5.00;62.91;100718.45;111020;1208;96491;-59
2023/03/19 05:51:26;;;;;;;78.40;31.40;;;;;;;5.04;62.93;100724.77;111075;1209;138625;-59
2023/03/19 05:53:51;;;;;;;67.70;29.70;;;;;;;5.07;62.96;100732.13;111059;1209;95225;-60
2023/03/19 05:56:16;;;;;;;71.70;30.70;;;;;;;5.09;62.91;100734.05;111028;1211;97716;-59
2023/03/19 05:58:42;;;;;;;78.80;31.50;;;;;;;5.12;63.03;100737.70;110985;1209;140554;-60
2023/03/19 06:01:07;;;;;;;63.00;28.70;;;;;;;5.14;62.92;100739.27;111052;1212;97675;-60
2023/03/19 06:03:32;;;;;;;77.90;30.10;;;;;;;5.15;63.15;100734.11;111018;1209;139198;-59
2023/03/19 06:05:58;;;;;;;71.10;31.20;;;;;;;5.17;63.25;100736.37;111068;1209;95143;-59
2023/03/19 06:08:23;;;;;;;69.40;28.80;;;;;;;5.19;63.09;100740.21;111089;1211;97682;-60
2023/03/19 06:10:48;;;;;;;70.90;29.40;;;;;;;5.21;62.99;100743.16;111078;1212;138390;-59
2023/03/19 06:13:14;;;;;;;73.10;31.50;;;;;;;5.23;63.15;100749.50;111044;1212;96216;-60
2023/03/19 06:15:39;;;;;;;65.60;29.90;;;;;;;5.27;63.19;100757.20;111009;1207;137845;-60
2023/03/19 06:18:04;;;;;;;77.40;30.00;;;;;;;5.31;63.32;100765.82;111084;1207;97635;-60
2023/03/19 06:20:30;;;;;;;68.10;27.70;;;;;;;5.37;63.29;100770.48;111105;1212;97664;-60
2023/03/19 06:22:57;;;;;;;70.50;29.60;;;;;;;5.41;63.16;100767.21;111065;1212;138794;-60
2023/03/19 06:25:22;;;;;;;64.60;27.90;;;;;;;5.41;63.18;100764.38;111166;1210;97541;-60
2023/03/19 06:27:47;;;;;;;65.90;28.90;;;;;;;5.42;63.20;100760.81;110916;1209;137870;-60
2023/03/19 06:30:13;;;;;;;65.80;28.10;;;;;;;5.46;63.45;100760.55;111109;1207;97549;-60
2023/03/19 06:32:38;;;;;;;89.80;31.60;;;;;;;5.50;63.29;100761.18;111110;1213;97684;-60
2023/03/19 06:35:05;;;;;;;69.10;30.80;;;;;;;5.54;63.29;100764.09;111065;1207;139349;-60
2023/03/19 06:37:31;;;;;;;78.50;29.40;;;;;;;5.60;63.50;100763.98;111146;1209;99426;-59
2023/03/19 06:39:57;;;;;;;65.20;27.90;;;;;;;5.67;63.57;100763.30;111001;1208;138374;-59
2023/03/19 06:42:22;;;;;;;65.80;27.80;;;;;;;5.72;63.56;100758.22;111121;1225;97774;-59
2023/03/19 06:44:48;;;;;;;66.60;28.70;;;;;;;5.77;63.50;100759.36;111096;1210;111629;-60
2023/03/19 06:47:14;;;;;;;66.80;27.70;;;;;;;5.82;63.49;100761.19;110951;1212;138899;-60
2023/03/19 06:49:39;;;;;;;66.90;29.30;;;;;;;5.88;63.56;100760.89;111240;1208;95095;-60
2023/03/19 06:52:05;;;;;;;64.20;27.80;;;;;;;5.96;63.58;100766.25;110938;1208;138421;-60
2023/03/19 06:54:30;;;;;;;66.90;28.60;;;;;;;6.00;63.57;100768.80;111115;1209;97712;-61
2023/03/19 06:56:56;;;;;;;68.40;30.10;;;;;;;6.05;63.51;100769.23;111084;1212;140469;-61
2023/03/19 06:59:21;;;;;;;63.40;27.50;;;;;;;6.12;63.52;100771.37;111092;1212;97773;-61
2023/03/19 07:01:46;;;;;;;68.50;28.00;;;;;;;6.16;63.57;100774.30;111225;1209;97584;-61
2023/03/19 07:04:12;;;;;;;67.00;28.50;;;;;;;6.20;63.59;100772.42;111169;1212;138612;-61
2023/03/19 07:06:39;;;;;;;71.40;29.60;;;;;;;6.25;63.59;100779.23;111192;1209;98072;-61
2023/03/19 07:09:04;;;;;;;64.60;28.50;;;;;;;6.30;63.56;100773.25;111023;1212;139170;-61
2023/03/19 07:11:30;;;;;;;67.60;29.50;;;;;;;6.38;63.64;100777.49;111198;1209;95056;-59
2023/03/19 07:13:55;;;;;;;65.80;28.90;;;;;;;6.46;63.52;100771.26;111131;1210;97634;-59
2023/03/19 07:16:20;;;;;;;70.50;28.40;;;;;;;6.53;63.49;100772.34;110975;1212;137713;-62
2023/03/19 07:18:46;;;;;;;65.30;28.30;;;;;;;6.59;63.46;100778.39;111248;1212;97587;-60
2023/03/19 07:21:12;;;;;;;70.90;30.60;;;;;;;6.67;63.38;100780.33;111101;1208;140132;-60
2023/03/19 07:23:37;;;;;;;67.80;29.70;;;;;;;6.76;63.48;100782.95;111279;1208;97711;-60
2023/03/19 07:26:03;;;;;;;72.60;30.10;;;;;;;6.83;63.37;100782.05;111172;1209;97730;-60
2023/03/19 07:28:29;;;;;;;67.10;30.40;;;;;;;6.92;63.44;100780.41;111053;1209;140492;-60
2023/03/19 07:30:55;;;;;;;69.90;29.20;;;;;;;7.01;63.49;100775.54;111243;1209;97578;-60
2023/03/19 07:33:20;;;;;;;73.50;30.10;;;;;;;7.09;63.47;100773.89;110975;1207;139713;-61
2023/03/19 07:35:46;;;;;;;68.00;30.10;;;;;;;7.19;63.48;100775.75;111098;1209;97690;-60
2023/03/19 07:38:12;;;;;;;69.90;30.40;;;;;;;7.29;63.41;100776.73;111170;1207;96212;-59
2023/03/19 07:40:37;;;;;;;84.00;32.60;;;;;;;7.40;63.45;100774.66;110988;1212;140013;-60
2023/03/19 07:43:03;;;;;;;73.10;31.70;;;;;;;7.50;63.41;100776.67;111127;1208;97649;-60
2023/03/19 07:45:28;;;;;;;70.40;32.50;;;;;;;7.60;63.44;100777.09;111117;1209;139017;-60
2023/03/19 07:47:54;;;;;;;76.60;32.50;;;;;;;7.67;63.36;100771.56;111140;1209;97661;-60
2023/03/19 07:50:19;;;;;;;87.40;34.90;;;;;;;7.73;63.42;100773.69;111148;1207;97590;-62
2023/03/19 07:52:46;;;;;;;92.50;36.90;;;;;;;7.79;63.36;100772.62;111152;1212;138692;-61
2023/03/19 07:55:12;;;;;;;83.90;32.80;;;;;;;7.84;63.32;100774.22;111178;1210;97587;-59
2023/03/19 07:57:37;;;;;;;84.40;34.80;;;;;;;7.88;63.26;100770.34;111083;1208;139855;-62
2023/03/19 08:00:04;;;;;;;64.50;30.10;;;;;;;7.92;63.26;100766.14;111155;1209;97609;-61
2023/03/19 08:02:30;;;;;;;71.30;30.90;;;;;;;7.97;63.29;100765.98;111163;1207;97641;-61
2023/03/19 08:04:55;;;;;;;71.40;30.10;;;;;;;8.04;63.25;100759.35;110895;1209;140879;-61
2023/03/19 08:07:21;;;;;;;68.00;32.50;;;;;;;8.11;63.23;100758.06;111012;1208;97612;-61
2023/03/19 08:09:47;;;;;;;66.00;30.60;;;;;;;8.21;63.22;100752.24;110924;1212;138239;-61
2023/03/19 08:12:13;;;;;;;66.90;31.10;;;;;;;8.32;63.19;100753.85;111013;1212;97728;-60
2023/03/19 08:14:39;;;;;;;64.40;29.70;;;;;;;8.44;63.17;100751.88;111112;1208;96807;-61
2023/03/19 08:17:04;;;;;;;57.30;27.40;;;;;;;8.56;63.18;100756.82;110894;1209;139022;-60
2023/03/19 08:19:30;;;;;;;56.50;27.10;;;;;;;8.67;63.11;100748.61;111041;1210;96892;-60
2023/03/19 08:21:56;;;;;;;62.40;28.70;;;;;;;8.82;63.08;100748.65;111033;1212;139169;-62
2023/03/19 08:24:21;;;;;;;61.30;26.50;;;;;;;8.94;63.09;100751.96;111180;1209;97771;-60
2023/03/19 08:26:47;;;;;;;60.30;24.90;;;;;;;9.07;62.90;100755.05;111067;1211;98022;-60
2023/03/19 08:29:12;;;;;;;54.70;25.50;;;;;;;9.18;62.85;100755.41;111095;1212;137671;-60
2023/03/19 08:31:38;;;;;;;60.90;26.20;;;;;;;9.30;62.85;100756.39;111135;1208;97666;-60
2023/03/19 08:34:03;;;;;;;54.10;25.40;;;;;;;9.38;62.75;100748.40;110958;1210;137978;-61
2023/03/19 08:36:30;;;;;;;57.60;25.50;;;;;;;9.44;62.70;100750.67;111129;1212;98103;-59
2023/03/19 08:38:55;;;;;;;56.80;24.90;;;;;;;9.50;62.57;100748.49;111067;1208;139235;-59
2023/03/19 08:41:21;;;;;;;57.70;27.20;;;;;;;9.58;62.51;100749.66;111095;1212;97651;-59
2023/03/19 08:43:46;;;;;;;55.50;29.60;;;;;;;9.66;62.37;100756.10;111162;1209;97716;-60
2023/03/19 08:46:12;;;;;;;59.00;30.20;;;;;;;9.79;62.46;100760.23;110885;1209;138799;-59
2023/03/19 08:48:37;;;;;;;72.60;32.50;;;;;;;9.94;62.44;100762.50;111052;1209;97699;-60
2023/03/19 08:51:03;;;;;;;74.80;33.60;;;;;;;10.07;62.29;100763.98;111048;1209;138028;-59
2023/03/19 08:53:30;;;;;;;76.50;35.90;;;;;;;10.20;62.18;100762.04;111213;1209;98045;-60
2023/03/19 08:55:59;;;;;;;65.60;32.00;;;;;;;10.29;62.09;100764.58;111109;1209;97597;-60
2023/03/19 08:58:25;;;;;;;64.00;28.60;;;;;;;10.36;61.90;100765.18;110970;1212;139514;-60
2023/03/19 09:00:52;;;;;;;61.20;27.00;;;;;;;10.48;61.95;100760.38;111191;1208;97690;-60
2023/03/19 09:03:19;;;;;;;60.70;26.90;;;;;;;10.60;61.78;100764.48;111009;1207;140412;-61
2023/03/19 09:05:45;;;;;;;57.90;28.00;;;;;;;10.72;61.66;100765.08;111054;1210;98269;-59
2023/03/19 09:08:11;;;;;;;61.30;28.80;;;;;;;10.86;61.73;100761.61;111147;1211;97683;-60
2023/03/19 09:10:37;;;;;;;51.10;26.50;;;;;;;10.96;61.57;100761.34;110929;1207;140442;-60
2023/03/19 09:13:02;;;;;;;51.10;25.20;;;;;;;11.07;61.44;100762.15;111081;1207;97570;-60
2023/03/19 09:15:28;;;;;;;53.20;25.50;;;;;;;11.17;61.21;100762.43;111137;1209;139903;-60
2023/03/19 09:17:53;;;;;;;54.80;25.50;;;;;;;11.28;61.23;100760.88;111176;1207;97677;-60
2023/03/19 09:20:19;;;;;;;55.10;23.60;;;;;;;11.38;61.05;100756.83;111130;1211;97683;-60
2023/03/19 09:22:44;;;;;;;56.20;25.20;;;;;;;11.48;60.78;100758.54;111125;1207;139708;-60
2023/03/19 09:25:10;;;;;;;59.10;25.30;;;;;;;11.59;60.77;100754.10;111162;1207;97684;-60
2023/03/19 09:27:35;;;;;;;51.60;22.90;;;;;;;11.68;60.27;100754.03;110995;1208;138000;-60
2023/03/19 09:30:01;;;;;;;47.80;21.30;;;;;;;11.76;60.48;100753.67;111162;1210;97673;-60
2023/03/19 09:32:27;;;;;;;42.20;20.50;;;;;;;11.87;60.29;100754.06;111192;1209;97557;-60
2023/03/19 09:34:52;;;;;;;41.40;20.60;;;;;;;12.00;60.04;100757.39;111111;1211;138628;-60
2023/03/19 09:37:18;;;;;;;46.90;19.90;;;;;;;12.10;60.01;100759.95;111145;1207;97747;-60
2023/03/19 09:39:43;;;;;;;42.60;17.50;;;;;;;12.17;59.60;100757.66;111103;1207;139830;-60
2023/03/19 09:42:25;;;;;;;40.10;19.30;;;;;;;12.26;59.34;100756.32;111166;1213;97683;-60
2023/03/19 09:44:52;;;;;;;43.30;18.90;;;;;;;12.39;59.13;100756.42;111045;1207;140069;-61
2023/03/19 09:47:25;;;;;;;30.60;17.40;;;;;;;12.54;58.84;100757.97;111080;1208;97692;-61
2023/03/19 09:49:53;;;;;;;42.40;17.90;;;;;;;12.70;58.67;100752.34;111066;1212;112034;-61
2023/03/19 09:52:42;;;;;;;33.00;16.80;;;;;;;12.84;58.08;100752.73;110950;1207;138868;-59
2023/03/19 09:55:34;;;;;;;37.60;18.80;;;;;;;12.96;58.20;100745.25;111130;1212;108078;-62
2023/03/19 09:58:01;;;;;;;39.10;19.30;;;;;;;13.08;57.87;100744.95;110990;1216;140278;-60
2023/03/19 10:00:34;;;;;;;34.20;17.30;;;;;;;13.20;57.75;100745.27;111091;1210;97590;-61
2023/03/19 10:03:30;;;;;;;35.70;17.40;;;;;;;13.33;57.60;100746.36;110915;1207;138093;-60
2023/03/19 10:06:04;;;;;;;40.30;18.00;;;;;;;13.40;57.32;100747.06;111150;1207;99997;-61
2023/03/19 10:08:55;;;;;;;35.30;17.00;;;;;;;13.48;56.97;100743.23;111133;1212;108014;-61
2023/03/19 10:11:53;;;;;;;35.50;17.50;;;;;;;13.52;56.91;100742.64;111159;1212;98910;-61
2023/03/19 10:14:41;;;;;;;39.90;20.30;;;;;;;13.61;56.63;100742.17;111007;1212;97665;-61
2023/03/19 10:17:14;;;;;;;33.70;17.20;;;;;;;13.71;56.46;100741.11;110892;1209;138687;-61
2023/03/19 10:19:43;;;;;;;42.50;18.40;;;;;;;13.73;56.24;100740.64;111085;1207;98304;-61
2023/03/19 10:22:20;;;;;;;40.60;18.80;;;;;;;13.73;55.99;100739.90;110866;1208;138906;-61
2023/03/19 10:24:49;;;;;;;37.80;18.70;;;;;;;13.78;55.82;100734.95;111105;1207;97603;-61
2023/03/19 10:27:20;;;;;;;43.30;19.00;;;;;;;13.86;55.64;100741.52;110825;1211;138875;-61
2023/03/19 10:29:46;;;;;;;42.70;19.10;;;;;;;13.88;55.49;100746.03;111099;1207;110724;-61
2023/03/19 10:32:18;;;;;;;36.00;18.80;;;;;;;13.88;55.06;100748.77;111296;1209;96119;-61
2023/03/19 10:34:49;;;;;;;42.10;19.20;;;;;;;13.93;55.02;100750.06;111093;1207;138787;-61
2023/03/19 10:37:19;;;;;;;42.20;20.00;;;;;;;14.00;54.70;100753.51;111207;1208;97657;-61
2023/03/19 10:39:47;;;;;;;37.70;19.30;;;;;;;14.10;54.62;100753.98;111192;1208;139155;-61
2023/03/19 10:42:37;;;;;;;37.40;18.60;;;;;;;14.21;54.49;100754.98;111186;1209;111490;-61
2023/03/19 10:45:27;;;;;;;42.60;19.50;;;;;;;14.28;54.31;100750.79;111042;1211;140160;-61
2023/03/19 10:47:55;;;;;;;54.30;21.30;;;;;;;14.31;54.14;100748.11;111097;1207;108063;-59
2023/03/19 10:50:37;;;;;;;42.90;19.60;;;;;;;14.29;53.94;100749.33;111102;1210;98198;-60
2023/03/19 10:53:15;;;;;;;40.90;19.80;;;;;;;14.25;53.73;100742.33;111023;1212;138904;-60
2023/03/19 10:55:56;;;;;;;50.00;21.10;;;;;;;14.16;53.25;100743.08;111200;1212;112835;-60
2023/03/19 10:58:26;;;;;;;39.50;18.70;;;;;;;14.05;53.24;100740.44;111107;1208;140353;-60
2023/03/19 11:01:09;;;;;;;40.50;18.10;;;;;;;14.09;53.22;100737.20;111248;1207;108003;-61
2023/03/19 11:03:49;;;;;;;39.80;18.40;;;;;;;14.09;53.01;100734.66;111026;1210;139395;-61
2023/03/19 11:06:32;;;;;;;39.30;19.50;;;;;;;14.10;52.70;100733.67;111106;1207;96471;-60